createdAt,value
2022-08-20T00:02:05.711Z,8.50
2022-08-20T00:05:07.662Z,3.75
2022-08-20T00:08:10.213Z,2.17
2022-08-20T00:11:15.973Z,3.28
2022-08-20T00:14:17.745Z,2.35
2022-08-20T00:17:19.308Z,2.20
2022-08-20T00:20:23.829Z,5.40
2022-08-20T00:23:25.642Z,2.38
2022-08-20T00:26:27.197Z,4.13
2022-08-20T00:29:29.438Z,3.25
2022-08-20T00:32:32.204Z,2.55
2022-08-20T00:35:37.141Z,3.03
2022-08-20T00:38:41.774Z,2.65
2022-08-20T00:41:43.346Z,1.52
2022-08-20T00:44:46.885Z,3.38
2022-08-20T00:47:51.489Z,2.78
2022-08-20T00:50:59.210Z,1.90
2022-08-20T00:54:22.859Z,4.35
2022-08-20T00:57:51.239Z,1.98
2022-08-20T01:00:56.992Z,1.85
2022-08-20T01:03:58.592Z,2.92
2022-08-20T01:07:01.642Z,2.85
2022-08-20T01:10:11.147Z,1.95
2022-08-20T01:13:15.725Z,2.08
2022-08-20T01:16:26.617Z,4.95
2022-08-20T01:19:46.571Z,1.70
2022-08-20T01:23:12.536Z,2.17
2022-08-20T01:26:14.062Z,1.50
2022-08-20T01:29:25.281Z,1.60
2022-08-20T01:32:26.896Z,2.40
2022-08-20T01:35:28.894Z,1.80
2022-08-20T01:38:30.491Z,3.25
2022-08-20T01:42:09.324Z,1.80
2022-08-20T01:45:10.956Z,2.33
2022-08-20T01:48:15.480Z,2.33
2022-08-20T01:51:21.582Z,2.15
2022-08-20T01:54:24.400Z,1.83
2022-08-20T01:57:26.948Z,2.00
2022-08-20T02:00:28.865Z,1.83
2022-08-20T02:03:34.805Z,2.55
2022-08-20T02:06:43.275Z,1.88
2022-08-20T02:09:59.502Z,1.60
2022-08-20T02:13:01.303Z,2.33
2022-08-20T02:16:03.284Z,5.90
2022-08-20T02:19:22.187Z,2.45
2022-08-20T02:22:29.325Z,2.00
2022-08-20T02:25:33.657Z,2.33
2022-08-20T02:28:35.221Z,2.92
2022-08-20T02:31:43.576Z,2.15
2022-08-20T02:35:03.236Z,2.78
2022-08-20T02:38:05.096Z,2.63
2022-08-20T02:41:08.174Z,2.92
2022-08-20T02:44:09.870Z,2.28
2022-08-20T02:47:11.630Z,2.55
2022-08-20T02:50:18.286Z,2.55
2022-08-20T02:53:20.339Z,3.30
2022-08-20T02:56:21.901Z,4.97
2022-08-20T02:59:23.554Z,2.88
2022-08-20T03:02:25.583Z,3.13
2022-08-20T03:05:28.255Z,3.10
2022-08-20T03:08:30.675Z,2.47
2022-08-20T03:11:32.913Z,2.42
2022-08-20T03:14:36.297Z,3.63
2022-08-20T03:17:38.307Z,3.15
2022-08-20T03:20:41.410Z,2.97
2022-08-20T03:23:43.130Z,3.47
2022-08-20T03:26:44.712Z,2.60
2022-08-20T03:29:46.272Z,2.83
2022-08-20T03:32:47.905Z,2.47
2022-08-20T03:35:49.874Z,2.90
2022-08-20T03:38:51.495Z,3.03
2022-08-20T03:41:53.134Z,3.58
2022-08-20T03:44:59.296Z,3.13
2022-08-20T03:48:01.654Z,2.90
2022-08-20T03:51:04.405Z,3.10
2022-08-20T03:54:05.992Z,3.40
2022-08-20T03:57:13.356Z,3.80
2022-08-20T04:00:20.556Z,4.13
2022-08-20T04:03:23.302Z,3.00
2022-08-20T04:06:25.581Z,2.78
2022-08-20T04:09:27.167Z,3.00
2022-08-20T04:12:29.089Z,2.67
2022-08-20T04:15:32.312Z,2.88
2022-08-20T04:18:36.285Z,3.00
2022-08-20T04:21:37.875Z,3.70
2022-08-20T04:24:40.400Z,3.10
2022-08-20T04:27:42.358Z,3.53
2022-08-20T04:30:47.559Z,3.35
2022-08-20T04:33:53.297Z,3.90
2022-08-20T04:36:55.313Z,3.63
2022-08-20T04:40:15.480Z,4.80
2022-08-20T04:46:19.260Z,5.05
2022-08-20T04:49:24.959Z,5.43
2022-08-20T04:52:28.080Z,5.13
2022-08-20T04:55:31.087Z,4.85
2022-08-20T04:58:38.181Z,5.80
2022-08-20T05:01:39.790Z,5.97
2022-08-20T05:04:41.398Z,4.53
2022-08-20T05:07:48.275Z,7.57
2022-08-20T05:10:51.252Z,5.82
2022-08-20T05:14:15.057Z,3.85
2022-08-20T05:17:17.703Z,5.45
2022-08-20T05:20:19.319Z,3.85
2022-08-20T05:23:21.265Z,4.97
2022-08-20T05:26:23.282Z,5.68
2022-08-20T05:29:25.296Z,4.18
2022-08-20T05:32:27.552Z,4.35
2022-08-20T05:35:30.334Z,6.05
2022-08-20T05:38:33.050Z,5.15
2022-08-20T05:41:36.263Z,4.45
2022-08-20T05:44:38.606Z,6.38
2022-08-20T05:47:42.834Z,5.88
2022-08-20T05:50:58.546Z,6.20
2022-08-20T05:54:00.133Z,4.63
2022-08-20T05:57:02.830Z,7.10
2022-08-20T06:00:08.092Z,6.53
2022-08-20T06:03:37.123Z,5.65
2022-08-20T06:06:44.659Z,6.00
2022-08-20T06:09:48.514Z,5.22
2022-08-20T06:12:53.119Z,7.03
2022-08-20T06:15:55.786Z,6.47
2022-08-20T06:18:58.078Z,7.18
2022-08-20T06:22:00.875Z,4.97
2022-08-20T06:25:03.071Z,6.15
2022-08-20T06:28:05.388Z,4.95
2022-08-20T06:31:07.806Z,8.32
2022-08-20T06:34:09.366Z,7.82
2022-08-20T06:37:31.221Z,6.30
2022-08-20T06:40:34.336Z,5.50
2022-08-20T06:43:35.922Z,8.05
2022-08-20T06:46:38.574Z,5.38
2022-08-20T06:49:40.136Z,6.50
2022-08-20T06:52:52.176Z,6.35
2022-08-20T06:55:56.842Z,6.32
2022-08-20T06:58:58.464Z,5.65
2022-08-20T07:02:00.023Z,6.85
2022-08-20T07:05:02.328Z,9.68
2022-08-20T07:08:05.310Z,9.10
2022-08-20T07:11:06.981Z,10.48
2022-08-20T07:14:08.502Z,11.85
2022-08-20T07:17:13.051Z,11.48
2022-08-20T07:20:15.604Z,11.02
2022-08-20T07:23:17.190Z,10.05
2022-08-20T07:26:19.301Z,10.90
2022-08-20T07:29:21.742Z,8.32
2022-08-20T07:32:39.414Z,10.90
2022-08-20T07:35:42.323Z,11.95
2022-08-20T07:38:47.353Z,9.98
2022-08-20T07:42:02.998Z,11.32
2022-08-20T07:45:07.109Z,11.43
2022-08-20T07:48:12.415Z,11.68
2022-08-20T07:51:29.668Z,13.55
2022-08-20T07:54:31.828Z,14.15
2022-08-20T07:57:33.721Z,15.32
2022-08-20T08:00:35.773Z,14.52
2022-08-20T08:03:48.948Z,14.20
2022-08-20T08:06:52.665Z,12.45
2022-08-20T08:09:55.649Z,9.90
2022-08-20T08:13:02.399Z,10.43
2022-08-20T08:16:07.076Z,15.00
2022-08-20T08:19:11.833Z,12.88
2022-08-20T08:22:16.244Z,12.07
2022-08-20T08:25:18.155Z,14.02
2022-08-20T08:28:20.495Z,13.75
2022-08-20T08:31:22.068Z,12.43
2022-08-20T08:34:26.187Z,11.20
2022-08-20T08:37:30.629Z,10.75
2022-08-20T08:40:33.915Z,12.48
2022-08-20T08:43:35.462Z,12.40
2022-08-20T08:46:43.546Z,11.57
2022-08-20T08:49:47.300Z,12.18
2022-08-20T08:52:53.356Z,11.55
2022-08-20T08:55:55.404Z,11.57
2022-08-20T08:59:01.858Z,9.38
2022-08-20T09:02:06.213Z,11.23
2022-08-20T09:05:17.673Z,11.63
2022-08-20T09:08:32.291Z,12.30
2022-08-20T09:11:47.317Z,8.52
2022-08-20T09:14:50.779Z,9.23
2022-08-20T09:17:52.860Z,8.25
2022-08-20T09:20:55.528Z,8.88
2022-08-20T09:23:57.066Z,8.35
2022-08-20T09:26:58.600Z,8.70
2022-08-20T09:30:00.158Z,7.97
2022-08-20T09:33:02.209Z,10.23
2022-08-20T09:36:04.111Z,9.70
2022-08-20T09:39:25.682Z,9.05
2022-08-20T09:42:30.782Z,12.07
2022-08-20T09:45:32.360Z,10.68
2022-08-20T09:48:33.921Z,11.82
2022-08-20T09:51:35.527Z,11.27
2022-08-20T09:54:44.547Z,9.45
2022-08-20T09:57:50.053Z,9.27
2022-08-20T10:00:52.022Z,10.88
2022-08-20T10:03:53.607Z,7.57
2022-08-20T10:06:55.964Z,9.40
2022-08-20T10:09:57.495Z,9.10
2022-08-20T10:12:59.032Z,7.18
2022-08-20T10:16:00.727Z,7.63
2022-08-20T10:19:03.739Z,8.90
2022-08-20T10:22:05.328Z,9.00
2022-08-20T10:25:07.823Z,8.45
2022-08-20T10:28:09.709Z,13.43
2022-08-20T10:31:12.392Z,8.70
2022-08-20T10:34:13.952Z,10.52
2022-08-20T10:37:21.469Z,9.73
2022-08-20T10:40:23.080Z,9.85
2022-08-20T10:43:24.672Z,9.00
2022-08-20T10:46:26.250Z,12.30
2022-08-20T10:49:34.134Z,11.80
2022-08-20T10:52:35.678Z,9.73
2022-08-20T10:55:37.234Z,7.03
2022-08-20T10:58:39.692Z,8.50
2022-08-20T11:01:42.880Z,6.75
2022-08-20T11:04:44.993Z,5.95
2022-08-20T11:07:55.162Z,8.50
2022-08-20T11:10:57.978Z,8.60
2022-08-20T11:13:59.512Z,8.65
2022-08-20T11:17:02.659Z,6.90
2022-08-20T11:20:06.380Z,6.78
2022-08-20T11:23:08.020Z,8.43
2022-08-20T11:26:10.158Z,6.68
2022-08-20T11:29:11.717Z,9.75
2022-08-20T11:32:13.300Z,6.47
2022-08-20T11:35:41.118Z,7.10
2022-08-20T11:38:36.519Z,6.20
2022-08-20T11:41:38.105Z,7.90
2022-08-20T11:44:39.659Z,7.43
2022-08-20T11:47:42.091Z,6.18
2022-08-20T11:50:43.892Z,8.15
2022-08-20T11:53:45.435Z,6.55
2022-08-20T11:56:47.235Z,6.60
2022-08-20T11:59:51.905Z,5.95
2022-08-20T12:02:53.661Z,5.72
2022-08-20T12:05:57.779Z,6.18
2022-08-20T12:08:59.669Z,6.40
2022-08-20T12:12:01.763Z,5.10
2022-08-20T12:15:04.372Z,4.18
2022-08-20T12:18:07.916Z,4.40
2022-08-20T12:21:09.461Z,4.00
2022-08-20T12:24:11.017Z,4.35
2022-08-20T12:27:14.025Z,4.80
2022-08-20T12:30:19.846Z,4.25
2022-08-20T12:33:22.469Z,4.30
2022-08-20T12:36:31.603Z,4.63
2022-08-20T12:39:34.542Z,4.10
2022-08-20T12:42:36.908Z,3.88
2022-08-20T12:45:38.492Z,5.68
2022-08-20T12:48:40.039Z,6.63
2022-08-20T12:51:41.616Z,5.50
2022-08-20T12:54:43.249Z,3.60
2022-08-20T12:57:50.646Z,3.75
2022-08-20T13:00:52.569Z,4.93
2022-08-20T13:03:54.095Z,4.95
2022-08-20T13:07:01.260Z,4.10
2022-08-20T13:10:04.423Z,4.13
2022-08-20T13:13:05.985Z,4.03
2022-08-20T13:16:07.543Z,4.13
2022-08-20T13:19:09.216Z,4.55
2022-08-20T13:22:12.026Z,3.95
2022-08-20T13:25:14.084Z,4.75
2022-08-20T13:28:15.608Z,3.60
2022-08-20T13:31:17.135Z,3.78
2022-08-20T13:34:20.098Z,3.90
2022-08-20T13:37:25.882Z,4.10
2022-08-20T13:40:27.767Z,4.05
2022-08-20T13:43:29.383Z,4.65
2022-08-20T13:46:31.081Z,3.92
2022-08-20T13:49:33.935Z,4.00
2022-08-20T13:52:36.823Z,4.13
2022-08-20T13:55:39.131Z,4.18
2022-08-20T13:58:40.905Z,3.78
2022-08-20T14:01:42.508Z,3.90
2022-08-20T14:04:44.328Z,3.42
2022-08-20T14:07:48.067Z,4.40
2022-08-20T14:10:51.612Z,4.70
2022-08-20T14:13:53.383Z,3.65
2022-08-20T14:16:54.925Z,4.25
2022-08-20T14:20:01.398Z,4.35
2022-08-20T14:23:03.973Z,5.32
2022-08-20T14:26:05.637Z,3.60
2022-08-20T14:29:07.216Z,4.85
2022-08-20T14:32:10.035Z,4.18
2022-08-20T14:35:11.884Z,4.05
2022-08-20T14:38:13.448Z,3.75
2022-08-20T14:41:14.965Z,4.05
2022-08-20T14:44:16.503Z,3.97
2022-08-20T14:47:20.701Z,3.92
2022-08-20T14:50:26.364Z,4.65
2022-08-20T14:53:27.874Z,3.72
2022-08-20T14:56:29.378Z,5.60
2022-08-20T14:59:31.696Z,4.85
2022-08-20T15:02:33.239Z,4.25
2022-08-20T15:05:39.557Z,5.55
2022-08-20T15:08:41.645Z,4.22
2022-08-20T15:11:43.178Z,4.78
2022-08-20T15:14:45.022Z,3.80
2022-08-20T15:17:53.561Z,3.92
2022-08-20T15:20:55.196Z,6.32
2022-08-20T15:23:56.818Z,4.63
2022-08-20T15:26:58.419Z,5.05
2022-08-20T15:30:00.017Z,4.82
2022-08-20T15:33:02.106Z,4.95
2022-08-20T15:36:06.759Z,4.20
2022-08-20T15:39:08.299Z,5.15
2022-08-20T15:42:12.868Z,5.03
2022-08-20T15:45:22.099Z,4.30
2022-08-20T15:48:33.065Z,4.07
2022-08-20T15:51:37.315Z,5.50
2022-08-20T15:54:39.669Z,5.57
2022-08-20T15:57:45.965Z,4.72
2022-08-20T16:01:23.764Z,4.10
2022-08-20T16:04:38.760Z,3.97
2022-08-20T16:07:54.778Z,4.43
2022-08-20T16:11:26.659Z,4.10
2022-08-20T16:14:31.591Z,4.28
2022-08-20T16:17:43.716Z,5.30
2022-08-20T16:20:48.825Z,4.07
2022-08-20T16:23:50.428Z,5.20
2022-08-20T16:27:18.440Z,4.05
2022-08-20T16:30:37.917Z,4.75
2022-08-20T16:33:54.638Z,7.30
2022-08-20T16:37:41.370Z,3.75
2022-08-20T16:40:58.944Z,4.03
2022-08-20T16:44:14.994Z,5.65
2022-08-20T16:47:27.254Z,5.50
2022-08-20T16:50:38.151Z,4.75
2022-08-20T16:53:39.809Z,4.95
2022-08-20T16:56:50.238Z,6.25
2022-08-20T16:59:59.372Z,5.00
2022-08-20T17:03:04.025Z,4.10
2022-08-20T17:06:16.649Z,5.35
2022-08-20T17:09:43.826Z,5.20
2022-08-20T17:12:45.502Z,4.50
2022-08-20T17:16:02.402Z,4.85
2022-08-20T17:19:10.678Z,4.50
2022-08-20T17:22:17.803Z,5.50
2022-08-20T17:25:31.825Z,6.25
2022-08-20T17:28:35.600Z,6.88
2022-08-20T17:31:42.160Z,7.22
2022-08-20T17:34:47.098Z,5.05
2022-08-20T17:37:53.953Z,6.88
2022-08-20T17:41:00.582Z,4.88
2022-08-20T17:44:03.803Z,6.85
2022-08-20T17:47:12.526Z,5.57
2022-08-20T17:50:21.761Z,5.95
2022-08-20T17:53:28.328Z,5.40
2022-08-20T17:56:35.075Z,4.85
2022-08-20T18:00:00.961Z,5.93
2022-08-20T18:03:16.181Z,5.88
2022-08-20T18:06:28.512Z,6.57
2022-08-20T18:09:41.004Z,5.82
2022-08-20T18:12:57.908Z,4.13
2022-08-20T18:16:01.132Z,4.25
2022-08-20T18:19:10.946Z,6.18
2022-08-20T18:22:21.285Z,6.32
2022-08-20T18:25:37.119Z,4.72
2022-08-20T18:28:46.785Z,5.85
2022-08-20T18:31:54.396Z,8.50
2022-08-20T18:35:30.042Z,6.70
2022-08-20T18:38:34.434Z,9.10
2022-08-20T18:41:41.685Z,6.28
2022-08-20T18:44:47.106Z,6.97
2022-08-20T18:47:48.714Z,4.88
2022-08-20T18:50:56.541Z,5.72
2022-08-20T18:53:58.288Z,7.13
2022-08-20T18:57:17.714Z,6.40
2022-08-20T19:00:21.625Z,7.77
2022-08-20T19:03:30.673Z,4.85
2022-08-20T19:06:44.314Z,11.80
2022-08-20T19:09:52.274Z,4.13
2022-08-20T19:12:58.544Z,5.05
2022-08-20T19:16:12.696Z,5.97
2022-08-20T19:19:21.697Z,5.65
2022-08-20T19:22:23.252Z,9.57
2022-08-20T19:25:29.230Z,5.65
2022-08-20T19:28:39.800Z,6.10
2022-08-20T19:31:42.417Z,13.48
2022-08-20T19:34:51.097Z,6.68
2022-08-20T19:37:52.647Z,5.35
2022-08-20T19:40:58.382Z,8.15
2022-08-20T19:44:33.358Z,3.38
2022-08-20T19:47:46.129Z,3.17
2022-08-20T19:50:54.741Z,4.45
2022-08-20T19:53:56.899Z,7.95
2022-08-20T19:57:04.680Z,6.53
2022-08-20T20:00:12.157Z,5.05
2022-08-20T20:03:29.848Z,5.43
2022-08-20T20:06:41.550Z,6.03
2022-08-20T20:09:43.122Z,4.57
2022-08-20T20:12:47.193Z,2.72
2022-08-20T20:15:55.201Z,4.40
2022-08-20T20:19:22.765Z,7.85
2022-08-20T20:22:34.074Z,8.15
2022-08-20T20:25:38.441Z,3.72
2022-08-20T20:28:53.467Z,9.55
2022-08-20T20:31:57.659Z,4.88
2022-08-20T20:35:02.572Z,6.88
2022-08-20T20:38:16.062Z,6.50
2022-08-20T20:41:26.977Z,7.60
2022-08-20T20:44:37.438Z,9.02
2022-08-20T20:47:39.277Z,6.68
2022-08-20T20:50:40.943Z,6.03
2022-08-20T20:53:51.345Z,4.75
2022-08-20T20:57:07.492Z,6.00
2022-08-20T21:00:16.495Z,7.45
2022-08-20T21:03:18.168Z,5.75
2022-08-20T21:06:22.534Z,4.85
2022-08-20T21:09:26.004Z,4.70
2022-08-20T21:12:27.559Z,6.40
2022-08-20T21:15:30.350Z,6.25
2022-08-20T21:18:35.436Z,6.90
2022-08-20T21:21:38.808Z,3.97
2022-08-20T21:24:40.546Z,11.43
2022-08-20T21:27:45.907Z,6.30
2022-08-20T21:30:47.488Z,6.32
2022-08-20T21:33:48.987Z,6.47
2022-08-20T21:36:50.761Z,4.07
2022-08-20T21:39:52.509Z,5.22
2022-08-20T21:42:54.190Z,5.25
2022-08-20T21:45:56.362Z,4.97
2022-08-20T21:48:57.957Z,2.78
2022-08-20T21:52:00.704Z,9.10
2022-08-20T21:55:02.296Z,7.25
2022-08-20T21:58:04.620Z,7.43
2022-08-20T22:01:06.956Z,4.50
2022-08-20T22:04:09.141Z,3.75
2022-08-20T22:07:11.240Z,5.47
2022-08-20T22:10:12.804Z,3.35
2022-08-20T22:13:14.731Z,4.10
2022-08-20T22:16:20.296Z,3.60
2022-08-20T22:19:21.800Z,6.13
2022-08-20T22:22:23.461Z,7.43
2022-08-20T22:25:25.260Z,6.85
2022-08-20T22:28:27.068Z,4.72
2022-08-20T22:31:35.425Z,3.63
2022-08-20T22:34:37.893Z,4.30
2022-08-20T22:37:39.663Z,3.55
2022-08-20T22:40:42.224Z,4.35
2022-08-20T22:43:56.690Z,5.43
2022-08-20T22:47:06.315Z,4.28
2022-08-20T22:50:16.440Z,3.53
2022-08-20T22:56:21.761Z,3.67
2022-08-20T22:59:24.965Z,4.63
2022-08-20T23:02:27.046Z,7.97
2022-08-20T23:05:32.141Z,4.53
2022-08-20T23:08:34.282Z,7.25
2022-08-20T23:11:40.979Z,3.25
2022-08-20T23:14:42.562Z,4.07
2022-08-20T23:17:44.911Z,4.03
2022-08-20T23:20:52.250Z,4.25
2022-08-20T23:23:53.829Z,5.95
2022-08-20T23:26:55.489Z,5.82
2022-08-20T23:29:57.079Z,4.90
2022-08-20T23:33:01.434Z,4.35
2022-08-20T23:36:07.611Z,4.78
2022-08-20T23:39:09.986Z,5.05
2022-08-20T23:42:12.120Z,5.15
2022-08-20T23:45:14.298Z,7.47
2022-08-20T23:48:15.977Z,8.73
2022-08-20T23:51:17.521Z,5.88
2022-08-20T23:54:19.068Z,4.72
2022-08-20T23:57:20.902Z,4.70
